Time;durP1;ratioP1;P1;durP2;ratioP2;P2;SDS_P1;SDS_P2;PMS_P1;PMS_P2;Temp;Humidity;BMP_temperature;BMP_pressure;BME280_temperature;BME280_humidity;BME280_pressure;Samples;Min_cycle;Max_cycle;Signal;HPM_P1;HPM_P2
2022/03/17 00:04:35;;;;;;;85.70;50.30;;;;;;;0.32;69.89;101288.46;213594;1275;142592;-69
2022/03/17 00:09:39;;;;;;;100.60;51.50;;;;;;;0.35;70.30;101294.23;213620;1274;139396;-69
2022/03/17 00:14:44;;;;;;;102.20;55.50;;;;;;;0.29;70.18;101295.76;214145;1275;142462;-69
2022/03/17 00:19:48;;;;;;;89.60;51.20;;;;;;;0.30;70.45;101296.74;213407;1276;141975;-69
2022/03/17 00:24:54;;;;;;;90.70;49.80;;;;;;;0.32;70.64;101297.63;213593;1274;142131;-67
2022/03/17 00:29:58;;;;;;;96.50;51.60;;;;;;;0.36;70.79;101297.13;214960;1274;139799;-68
2022/03/17 00:40:26;;;;;;;110.40;54.60;;;;;;;0.29;71.02;101298.08;214264;1276;139853;-68
2022/03/17 00:45:32;;;;;;;88.40;49.50;;;;;;;0.29;70.79;101297.88;214652;1277;141743;-72
2022/03/17 00:50:36;;;;;;;98.50;53.40;;;;;;;0.27;70.50;101296.98;214136;1275;140315;-70
2022/03/17 00:55:39;;;;;;;96.20;54.60;;;;;;;0.27;70.84;101298.59;214116;1275;140119;-69
2022/03/17 01:00:43;;;;;;;92.90;50.10;;;;;;;0.23;70.67;101301.50;215192;1275;140768;-68
2022/03/17 01:05:47;;;;;;;103.00;55.40;;;;;;;0.21;70.98;101306.05;215787;1276;139346;-69
2022/03/17 01:10:52;;;;;;;106.60;49.80;;;;;;;0.24;71.29;101307.93;215106;1274;139608;-67
2022/03/17 01:15:57;;;;;;;92.40;50.90;;;;;;;0.30;71.35;101299.39;214781;1274;139885;-71
2022/03/17 01:21:01;;;;;;;103.70;52.40;;;;;;;0.31;71.02;101303.66;215824;1274;139855;-71
2022/03/17 01:26:09;;;;;;;90.20;52.30;;;;;;;0.36;71.42;101306.35;214890;1276;141008;-69
2022/03/17 01:31:13;;;;;;;82.40;49.20;;;;;;;0.41;71.21;101307.34;214905;1275;140318;-68
2022/03/17 01:36:17;;;;;;;98.70;47.80;;;;;;;0.34;70.84;101306.70;214165;1274;139352;-69
2022/03/17 01:41:22;;;;;;;91.00;47.60;;;;;;;0.25;70.99;101308.16;213833;1275;140455;-70
2022/03/17 01:46:27;;;;;;;83.00;46.50;;;;;;;0.27;71.31;101314.14;214079;1276;140015;-69
2022/03/17 01:51:31;;;;;;;90.30;51.00;;;;;;;0.26;71.10;101317.22;213755;1275;139664;-67
2022/03/17 01:56:35;;;;;;;88.00;50.70;;;;;;;0.26;71.24;101320.31;214458;1275;139353;-65
2022/03/17 02:01:40;;;;;;;78.90;45.20;;;;;;;0.27;71.28;101330.75;213566;1276;139710;-65
2022/03/17 02:06:45;;;;;;;76.00;41.20;;;;;;;0.25;71.51;101333.71;214043;1274;139019;-65
2022/03/17 02:17:14;;;;;;;74.30;43.50;;;;;;;0.56;72.79;101333.89;213772;1274;139929;-65
2022/03/17 02:22:21;;;;;;;78.80;44.00;;;;;;;0.71;72.81;101344.85;213816;1275;140218;-64
2022/03/17 02:27:33;;;;;;;76.70;46.60;;;;;;;0.83;72.76;101355.68;213344;1276;140741;-65
2022/03/17 02:32:37;;;;;;;77.70;44.10;;;;;;;0.88;72.64;101356.27;214767;1274;139874;-68
2022/03/17 02:37:41;;;;;;;84.20;50.00;;;;;;;0.91;72.76;101366.20;213390;1276;139224;-68
2022/03/17 02:42:45;;;;;;;81.20;45.70;;;;;;;0.94;72.31;101364.64;213905;1276;140560;-67
2022/03/17 02:47:50;;;;;;;88.70;51.30;;;;;;;0.98;72.53;101363.23;214484;1276;140435;-72
2022/03/17 02:52:55;;;;;;;88.60;50.20;;;;;;;1.03;72.36;101367.63;214580;1275;139352;-72
2022/03/17 02:57:59;;;;;;;90.20;50.80;;;;;;;1.06;71.86;101367.70;214315;1275;139732;-72
2022/03/17 03:03:05;;;;;;;68.90;39.80;;;;;;;0.99;71.94;101373.73;215733;1275;140608;-73
2022/03/17 03:08:09;;;;;;;86.10;47.40;;;;;;;0.91;71.88;101373.48;214067;1274;140007;-72
2022/03/17 03:13:14;;;;;;;89.20;52.00;;;;;;;0.93;71.77;101375.45;215256;1274;140376;-72
2022/03/17 03:18:19;;;;;;;89.30;49.30;;;;;;;0.98;72.12;101383.54;216011;1275;140116;-71
2022/03/17 03:23:23;;;;;;;84.50;48.20;;;;;;;0.98;71.54;101396.33;215896;1274;138894;-71
2022/03/17 03:28:27;;;;;;;89.90;51.90;;;;;;;0.94;71.60;101400.73;215932;1275;139529;-71
2022/03/17 03:33:32;;;;;;;85.00;47.30;;;;;;;0.91;71.31;101410.48;213892;1275;139819;-67
2022/03/17 03:38:35;;;;;;;87.40;51.10;;;;;;;0.80;70.92;101411.08;214609;1275;140125;-68
2022/03/17 03:43:40;;;;;;;83.70;50.60;;;;;;;0.72;70.67;101422.30;213542;1276;139853;-68
2022/03/17 03:48:44;;;;;;;87.70;51.00;;;;;;;0.60;71.14;101426.79;214266;1275;139592;-68
2022/03/17 03:59:20;;;;;;;89.20;54.00;;;;;;;0.30;71.32;101418.64;214986;1274;141432;-72
2022/03/17 04:04:28;;;;;;;74.40;47.10;;;;;;;0.16;71.18;101420.33;214211;1274;140652;-67
2022/03/17 04:09:38;;;;;;;86.10;45.40;;;;;;;0.03;71.41;101422.10;213219;1275;139104;-68
2022/03/17 04:14:42;;;;;;;89.40;53.40;;;;;;;-0.02;71.57;101428.27;213509;1274;139410;-69
2022/03/17 04:19:50;;;;;;;98.70;52.60;;;;;;;-0.03;71.69;101435.14;213844;1274;140216;-71
2022/03/17 04:24:57;;;;;;;65.10;39.80;;;;;;;-0.17;71.91;101440.16;213500;1275;140699;-66
2022/03/17 04:30:01;;;;;;;71.50;44.00;;;;;;;-0.37;72.05;101452.05;213792;1275;140689;-69
2022/03/17 04:35:07;;;;;;;95.00;51.60;;;;;;;-0.52;72.56;101453.81;213240;1276;140231;-69
2022/03/17 04:40:14;;;;;;;91.20;50.70;;;;;;;-0.60;72.36;101457.77;214644;1275;142446;-70
2022/03/17 04:45:20;;;;;;;81.50;51.80;;;;;;;-0.66;72.32;101455.25;213229;1276;140679;-67
2022/03/17 04:50:25;;;;;;;82.90;48.70;;;;;;;-0.72;72.57;101456.60;214441;1274;139109;-70
2022/03/17 04:55:29;;;;;;;91.90;49.00;;;;;;;-0.79;72.78;101461.38;215432;1274;139591;-71
2022/03/17 05:00:33;;;;;;;84.90;49.50;;;;;;;-0.89;72.84;101464.52;214912;1274;139983;-72
2022/03/17 05:05:38;;;;;;;84.80;49.20;;;;;;;-0.90;73.03;101467.80;214378;1274;141290;-72
2022/03/17 05:10:44;;;;;;;92.40;51.10;;;;;;;-0.81;72.92;101465.16;215661;1274;142340;-72
2022/03/17 05:15:49;;;;;;;89.80;52.50;;;;;;;-0.69;73.01;101460.39;214958;1275;142175;-71
2022/03/17 05:20:54;;;;;;;88.70;53.00;;;;;;;-0.63;73.12;101457.17;215812;1275;141074;-70
2022/03/17 05:25:58;;;;;;;87.50;52.00;;;;;;;-0.58;73.10;101465.85;215654;1274;141868;-65
2022/03/17 05:31:02;;;;;;;89.90;53.50;;;;;;;-0.52;73.14;101467.93;215357;1276;139715;-66
2022/03/17 05:36:07;;;;;;;91.20;49.90;;;;;;;-0.40;73.12;101472.23;214924;1275;141348;-68
2022/03/17 05:41:10;;;;;;;94.50;54.50;;;;;;;-0.21;73.04;101483.48;215789;1275;140607;-72
2022/03/17 05:46:15;;;;;;;104.10;59.70;;;;;;;-0.02;73.25;101488.88;215005;1276;140475;-71
2022/03/17 05:51:19;;;;;;;79.30;52.20;;;;;;;0.14;73.06;101488.66;213643;1276;140999;-67
2022/03/17 05:56:24;;;;;;;88.30;53.50;;;;;;;0.24;73.21;101484.67;214209;1274;140189;-65
2022/03/17 06:01:29;;;;;;;94.40;52.30;;;;;;;0.41;73.47;101489.63;213614;1274;140327;-70
2022/03/17 06:06:34;;;;;;;92.90;51.10;;;;;;;0.63;73.45;101489.98;214131;1275;140433;-72
2022/03/17 06:11:39;;;;;;;83.50;47.80;;;;;;;0.85;73.44;101490.63;214502;1274;140734;-77
2022/03/17 06:16:43;;;;;;;76.90;48.50;;;;;;;1.08;73.83;101494.65;214423;1275;139712;-76
2022/03/17 06:21:50;;;;;;;73.70;42.30;;;;;;;1.31;73.76;101501.23;214351;1275;151142;-69
2022/03/17 06:26:55;;;;;;;84.50;48.00;;;;;;;1.62;74.14;101500.98;214158;1275;141492;-73
2022/03/17 06:31:59;;;;;;;58.10;37.40;;;;;;;1.94;73.66;101505.73;213365;1274;141504;-73
2022/03/17 06:37:04;;;;;;;78.00;41.20;;;;;;;2.18;73.46;101505.06;214281;1274;140359;-67
2022/03/17 06:42:09;;;;;;;74.40;43.20;;;;;;;2.42;72.92;101509.95;214419;1274;140422;-68
2022/03/17 06:47:13;;;;;;;68.80;42.70;;;;;;;2.75;73.10;101516.27;213641;1274;140515;-67
2022/03/17 06:52:17;;;;;;;64.70;37.50;;;;;;;3.05;72.31;101522.90;213326;1274;140869;-70
2022/03/17 06:57:23;;;;;;;53.70;35.10;;;;;;;3.37;72.42;101529.08;214318;1274;140306;-70
2022/03/17 07:02:27;;;;;;;54.30;33.70;;;;;;;3.73;71.78;101526.88;213805;1274;141744;-72
2022/03/17 07:07:31;;;;;;;54.10;33.40;;;;;;;4.17;71.19;101523.27;214404;1274;139779;-69
2022/03/17 07:12:38;;;;;;;52.20;30.30;;;;;;;4.74;70.49;101528.38;214816;1274;141529;-68
2022/03/17 07:17:43;;;;;;;49.30;30.50;;;;;;;5.86;68.99;101531.94;215436;1274;161134;-67
2022/03/17 07:22:49;;;;;;;47.00;31.10;;;;;;;7.56;67.75;101539.38;215480;1274;139825;-70
2022/03/17 07:27:53;;;;;;;49.40;30.60;;;;;;;9.27;65.62;101541.73;214777;1276;140177;-74
2022/03/17 07:32:59;;;;;;;47.80;29.70;;;;;;;10.57;63.13;101549.08;213712;1275;141445;-73
2022/03/17 07:38:05;;;;;;;49.50;35.80;;;;;;;11.56;60.88;101560.34;215823;1275;142816;-70
2022/03/17 07:43:08;;;;;;;44.20;32.50;;;;;;;12.38;59.30;101558.94;215865;1274;141019;-69
2022/03/17 07:48:13;;;;;;;48.40;32.40;;;;;;;12.81;57.59;101565.23;214346;1273;143176;-70
2022/03/17 07:53:17;;;;;;;42.10;30.20;;;;;;;12.82;56.03;101574.45;215641;1274;235946;-69
2022/03/17 07:58:23;;;;;;;43.50;29.80;;;;;;;12.51;54.46;101585.55;215036;1274;140572;-75
2022/03/17 08:03:28;;;;;;;39.80;29.00;;;;;;;12.02;53.50;101593.41;214304;1274;140441;-71
2022/03/17 08:08:34;;;;;;;51.00;30.40;;;;;;;11.81;53.91;101598.69;214373;1275;140771;-74
2022/03/17 08:13:41;;;;;;;44.30;29.20;;;;;;;11.59;52.76;101603.18;214439;1276;142700;-70
2022/03/17 08:18:45;;;;;;;39.40;24.10;;;;;;;11.32;53.20;101601.72;213001;1276;205280;-72
2022/03/17 08:23:50;;;;;;;41.10;27.80;;;;;;;11.26;52.83;101610.42;214419;1276;140103;-72
2022/03/17 08:28:54;;;;;;;39.70;26.30;;;;;;;11.01;52.33;101610.69;214269;1276;139475;-74
2022/03/17 08:33:58;;;;;;;41.50;28.50;;;;;;;10.78;51.76;101608.19;213822;1276;140481;-70
2022/03/17 08:39:02;;;;;;;41.40;24.30;;;;;;;10.48;51.35;101608.58;213857;1276;140721;-68
2022/03/17 08:44:07;;;;;;;41.20;26.20;;;;;;;10.40;51.93;101615.02;213605;1276;140126;-73
2022/03/17 08:49:22;;;;;;;40.90;26.40;;;;;;;10.53;51.82;101615.02;212827;1276;141690;-67
2022/03/17 08:54:29;;;;;;;33.40;21.40;;;;;;;10.65;52.19;101615.83;213156;1276;141067;-76
2022/03/17 08:59:36;;;;;;;33.40;23.10;;;;;;;10.96;51.67;101616.45;214203;1276;139684;-76
2022/03/17 09:04:41;;;;;;;;;;;;;;;10.99;50.62;101614.44;214138;1276;140346;-73
2022/03/17 09:09:46;;;;;;;27.20;18.30;;;;;;;10.97;50.07;101607.80;215213;1276;126116;-72
2022/03/17 09:14:50;;;;;;;28.40;19.00;;;;;;;10.97;49.47;101603.98;215087;1276;139583;-75
2022/03/17 09:19:55;;;;;;;29.40;18.60;;;;;;;11.06;48.54;101603.80;214122;1277;141285;-70
2022/03/17 09:25:00;;;;;;;28.40;19.40;;;;;;;11.04;47.83;101603.61;215243;1277;140200;-70
2022/03/17 09:30:05;;;;;;;24.50;17.10;;;;;;;11.08;47.75;101609.56;215042;1276;141570;-68
2022/03/17 09:35:13;;;;;;;21.70;15.20;;;;;;;11.12;47.11;101612.40;215456;1276;140040;-69
2022/03/17 09:40:18;;;;;;;21.20;14.20;;;;;;;11.18;46.76;101611.91;215041;1276;141637;-74
2022/03/17 09:45:24;;;;;;;18.40;12.80;;;;;;;11.12;45.53;101609.98;215660;1276;140121;-71
2022/03/17 09:50:29;;;;;;;15.60;12.40;;;;;;;11.11;45.27;101612.92;214790;1276;142118;-73
2022/03/17 09:55:35;;;;;;;14.80;9.10;;;;;;;11.13;44.32;101620.73;215114;1276;506359;-70
2022/03/17 10:00:49;;;;;;;12.00;9.40;;;;;;;11.24;44.44;101621.41;214420;1276;139796;-69
2022/03/17 10:05:55;;;;;;;16.00;11.30;;;;;;;11.29;44.01;101621.79;213891;1276;139762;-69
2022/03/17 10:11:00;;;;;;;21.70;13.90;;;;;;;11.25;43.47;101619.58;212970;1276;140076;-72
2022/03/17 10:16:10;;;;;;;18.90;11.90;;;;;;;11.34;43.95;101616.73;213940;1276;139503;-72
2022/03/17 10:21:24;;;;;;;19.50;13.20;;;;;;;11.51;43.82;101618.17;213531;1276;141112;-74
2022/03/17 10:26:59;;;;;;;17.00;12.30;;;;;;;11.53;43.46;101621.88;213712;1276;139811;-70
2022/03/17 10:32:07;;;;;;;20.70;12.40;;;;;;;11.70;43.94;101616.41;213745;1277;140345;-75
2022/03/17 10:37:20;;;;;;;21.60;12.70;;;;;;;11.96;43.98;101613.12;212787;1276;140421;-79
2022/03/17 10:42:29;;;;;;;20.60;14.70;;;;;;;12.07;43.58;101617.90;213517;1276;140799;-71
2022/03/17 10:47:39;;;;;;;19.50;12.30;;;;;;;12.12;43.55;101610.69;212873;1276;140320;-78
2022/03/17 10:52:57;;;;;;;19.00;13.30;;;;;;;12.10;42.92;101609.70;213662;1276;139945;-75
2022/03/17 10:58:13;;;;;;;19.80;14.40;;;;;;;12.00;42.97;101614.98;213191;1276;141440;-75
2022/03/17 11:03:18;;;;;;;16.60;11.50;;;;;;;12.12;42.81;101602.27;213377;1276;142964;-73
2022/03/17 11:08:23;;;;;;;19.30;12.60;;;;;;;12.02;41.63;101603.27;214267;1276;139690;-75
2022/03/17 11:13:29;;;;;;;15.70;9.80;;;;;;;11.96;41.72;101607.56;213178;1276;141000;-76
2022/03/17 11:18:38;;;;;;;17.80;13.80;;;;;;;12.01;41.84;101609.43;214264;1276;142749;-76
2022/03/17 11:23:56;;;;;;;18.00;11.90;;;;;;;12.17;41.73;101602.16;213619;1276;140114;-77
2022/03/17 11:29:18;;;;;;;19.00;12.30;;;;;;;12.28;41.76;101596.46;214298;1276;141859;-79
2022/03/17 11:34:48;;;;;;;20.20;12.30;;;;;;;12.33;41.30;101603.23;214033;1278;140964;-78
2022/03/17 11:40:11;;;;;;;16.00;11.60;;;;;;;12.25;40.66;101601.52;215493;1278;141514;-79
2022/03/17 11:45:16;;;;;;;16.90;12.00;;;;;;;11.94;40.90;101605.25;214479;1276;142245;-75
2022/03/17 11:50:31;;;;;;;13.90;12.40;;;;;;;11.80;40.53;101601.86;215737;1275;141300;-76
2022/03/17 11:55:42;;;;;;;16.60;12.60;;;;;;;11.71;40.84;101592.64;215026;1276;140433;-76
2022/03/17 12:01:00;;;;;;;16.70;12.90;;;;;;;11.87;41.38;101583.20;214178;1276;140637;-75
2022/03/17 12:06:19;;;;;;;17.30;12.80;;;;;;;11.95;40.55;101586.88;213286;1277;140417;-77
2022/03/17 12:11:25;;;;;;;15.90;11.00;;;;;;;12.02;41.15;101577.41;213312;1277;141771;-75
2022/03/17 12:16:40;;;;;;;19.90;13.60;;;;;;;12.31;41.42;101568.59;213961;1276;140721;-71
2022/03/17 12:22:03;;;;;;;16.50;11.70;;;;;;;12.41;40.66;101563.93;214215;1278;143702;-75
2022/03/17 12:27:13;;;;;;;21.40;15.30;;;;;;;12.54;40.84;101563.75;213220;1278;141419;-74
2022/03/17 12:32:21;;;;;;;15.40;11.50;;;;;;;12.51;40.49;101562.23;213389;1277;141036;-74
2022/03/17 12:37:28;;;;;;;18.70;12.50;;;;;;;12.43;40.21;101555.92;213305;1277;140846;-75
2022/03/17 12:42:38;;;;;;;16.80;11.70;;;;;;;12.09;39.84;101559.05;212847;1278;141458;-76
2022/03/17 12:47:47;;;;;;;17.50;11.70;;;;;;;11.67;39.60;101562.55;214072;1277;139830;-77
2022/03/17 12:52:51;;;;;;;15.60;12.00;;;;;;;11.45;39.66;101561.13;213746;1277;140216;-76
2022/03/17 12:57:58;;;;;;;14.70;10.40;;;;;;;11.23;40.06;101559.36;213332;1277;139745;-70
2022/03/17 13:03:04;;;;;;;18.40;12.50;;;;;;;11.18;40.23;101555.09;214166;1278;139326;-73
2022/03/17 13:08:11;;;;;;;13.90;11.30;;;;;;;10.96;39.83;101560.61;213491;1276;140415;-75
2022/03/17 13:18:54;;;;;;;15.00;11.20;;;;;;;10.67;40.33;101562.41;214351;1276;140857;-74
2022/03/17 13:24:11;;;;;;;15.30;11.30;;;;;;;10.57;40.66;101558.21;213127;1277;139871;-75
2022/03/17 13:29:15;;;;;;;13.40;10.40;;;;;;;10.61;40.85;101559.15;213239;1278;139400;-76
2022/03/17 13:34:27;;;;;;;15.40;10.40;;;;;;;10.58;40.86;101554.90;213769;1278;140578;-75
2022/03/17 13:39:35;;;;;;;12.30;9.40;;;;;;;10.46;40.35;101558.64;215690;1277;140330;-76
2022/03/17 13:44:54;;;;;;;15.50;11.90;;;;;;;10.35;40.70;101563.25;215079;1277;139479;-76
2022/03/17 13:50:21;;;;;;;;;;;;;;;10.23;40.68;101558.00;214178;1277;140477;-74
2022/03/17 13:55:41;;;;;;;15.00;11.30;;;;;;;10.05;40.70;101557.79;214481;1277;125892;-79
2022/03/17 14:00:50;;;;;;;17.00;11.30;;;;;;;9.91;40.61;101556.17;215288;1277;141480;-77
2022/03/17 14:06:11;;;;;;;26.60;13.90;;;;;;;9.82;41.17;101554.61;215088;1278;140203;-76
2022/03/17 14:11:19;;;;;;;16.60;11.70;;;;;;;9.72;41.34;101552.61;213555;1277;139546;-75
2022/03/17 14:16:27;;;;;;;18.00;12.90;;;;;;;9.61;41.10;101554.34;214639;1276;140356;-76
2022/03/17 14:21:32;;;;;;;20.10;14.30;;;;;;;9.48;41.36;101555.31;214667;1276;140010;-76
2022/03/17 14:26:39;;;;;;;14.20;10.40;;;;;;;9.39;41.77;101553.71;214039;1276;139936;-73
2022/03/17 14:31:46;;;;;;;15.30;11.50;;;;;;;9.31;41.59;101556.16;213637;1276;139883;-75
2022/03/17 14:36:52;;;;;;;17.10;12.20;;;;;;;9.21;42.24;101556.95;215115;1276;140499;-73
2022/03/17 14:41:58;;;;;;;15.90;10.70;;;;;;;9.15;42.50;101552.64;213981;1276;139737;-71
2022/03/17 14:47:02;;;;;;;13.60;10.40;;;;;;;9.06;42.67;101556.98;213268;1276;139884;-73
2022/03/17 14:52:07;;;;;;;18.70;12.50;;;;;;;9.03;42.76;101559.42;213815;1276;140735;-73
2022/03/17 14:57:15;;;;;;;13.00;10.40;;;;;;;8.96;42.61;101560.81;213048;1276;140540;-72
2022/03/17 15:02:20;;;;;;;15.20;11.70;;;;;;;8.89;42.77;101560.20;212887;1276;139627;-72
2022/03/17 15:07:25;;;;;;;23.70;13.30;;;;;;;8.83;42.95;101562.80;213498;1276;140840;-74
2022/03/17 15:12:28;;;;;;;13.60;10.00;;;;;;;8.76;43.09;101566.94;213135;1276;140494;-73
2022/03/17 15:17:34;;;;;;;19.60;13.30;;;;;;;8.71;43.05;101569.02;214258;1276;140210;-74
2022/03/17 15:22:42;;;;;;;20.70;11.30;;;;;;;8.66;42.98;101570.02;213722;1276;140223;-74
2022/03/17 15:33:18;;;;;;;14.50;12.50;;;;;;;8.59;44.15;101580.90;214888;1276;139774;-74
2022/03/17 15:38:22;;;;;;;25.60;15.40;;;;;;;8.51;44.19;101584.36;213770;1276;141024;-74
2022/03/17 15:43:28;;;;;;;20.10;11.90;;;;;;;8.42;44.67;101588.96;213393;1276;140367;-71
2022/03/17 15:48:32;;;;;;;36.30;13.80;;;;;;;8.29;44.53;101592.83;214939;1276;139555;-74
2022/03/17 15:53:35;;;;;;;19.90;12.60;;;;;;;8.18;44.73;101597.81;215755;1276;140397;-73
2022/03/17 15:58:40;;;;;;;18.80;12.30;;;;;;;8.07;44.88;101599.48;214343;1276;140079;-74
2022/03/17 16:03:45;;;;;;;14.80;12.80;;;;;;;7.94;44.96;101597.77;215895;1276;141833;-75
2022/03/17 16:08:49;;;;;;;21.30;14.20;;;;;;;7.81;45.08;101593.51;215612;1276;140724;-72
2022/03/17 16:19:19;;;;;;;18.10;12.70;;;;;;;7.57;45.34;101608.65;214828;1277;140312;-73
2022/03/17 16:24:26;;;;;;;23.10;13.30;;;;;;;7.43;45.61;101605.58;213162;1277;140154;-73
2022/03/17 16:29:30;;;;;;;25.90;16.10;;;;;;;7.29;45.74;101607.30;214981;1276;140789;-73
2022/03/17 16:34:35;;;;;;;21.20;13.80;;;;;;;7.15;45.70;101614.66;213234;1277;139455;-69
2022/03/17 16:39:39;;;;;;;20.20;13.30;;;;;;;7.04;46.22;101620.77;213159;1277;141628;-71
2022/03/17 16:44:43;;;;;;;21.20;14.90;;;;;;;6.92;46.19;101624.55;213978;1277;141971;-73
2022/03/17 16:49:48;;;;;;;18.40;14.10;;;;;;;6.82;46.68;101630.26;213094;1276;141867;-71
2022/03/17 16:54:53;;;;;;;21.00;12.80;;;;;;;6.73;46.80;101635.62;213965;1277;140332;-74
2022/03/17 16:59:58;;;;;;;20.30;14.50;;;;;;;6.62;47.25;101635.80;213300;1277;139418;-73
2022/03/17 17:05:04;;;;;;;51.70;19.20;;;;;;;6.50;47.45;101643.20;214261;1277;140342;-73
2022/03/17 17:10:10;;;;;;;30.80;17.20;;;;;;;6.40;47.70;101652.39;213673;1277;139539;-71
2022/03/17 17:15:15;;;;;;;21.60;14.50;;;;;;;6.30;47.34;101649.91;213786;1277;140182;-67
2022/03/17 17:20:19;;;;;;;28.60;16.40;;;;;;;6.21;47.66;101653.67;215052;1277;140982;-71
2022/03/17 17:30:51;;;;;;;21.40;13.10;;;;;;;5.93;47.56;101668.93;213912;1276;141498;-67
2022/03/17 17:35:55;;;;;;;;;;;;;;;5.83;47.66;101686.21;214285;1277;140016;-72
2022/03/17 17:40:59;;;;;;;20.60;11.00;;;;;;;5.74;47.58;101690.30;214424;1277;126759;-65
2022/03/17 17:46:07;;;;;;;22.40;10.30;;;;;;;5.68;47.53;101692.67;214490;1277;140856;-75
2022/03/17 17:51:16;;;;;;;17.70;11.10;;;;;;;5.61;47.19;101696.83;214013;1277;151913;-72
2022/03/17 17:56:20;;;;;;;18.00;10.70;;;;;;;5.59;47.14;101701.86;213413;1277;140890;-67
2022/03/17 18:01:24;;;;;;;28.60;13.00;;;;;;;5.52;46.74;101700.10;214278;1277;139941;-72
2022/03/17 18:06:28;;;;;;;17.80;10.50;;;;;;;5.45;46.78;101697.30;215822;1276;139915;-73
2022/03/17 18:11:33;;;;;;;16.60;9.40;;;;;;;5.40;46.41;101695.31;215119;1277;141270;-73
2022/03/17 18:16:38;;;;;;;12.30;7.30;;;;;;;5.37;45.91;101704.61;215749;1276;140634;-78
2022/03/17 18:21:42;;;;;;;20.00;8.10;;;;;;;5.34;45.51;101716.32;214721;1276;140622;-71
2022/03/17 18:26:47;;;;;;;47.60;22.80;;;;;;;5.31;44.93;101721.91;214344;1276;139996;-74
2022/03/17 18:31:52;;;;;;;12.90;8.00;;;;;;;5.25;44.85;101725.88;214421;1277;139943;-74
2022/03/17 18:36:56;;;;;;;14.80;8.30;;;;;;;5.19;44.78;101728.11;215165;1275;140024;-76
2022/03/17 18:42:02;;;;;;;11.50;6.20;;;;;;;5.13;44.40;101733.12;214190;1276;140570;-71
2022/03/17 18:47:07;;;;;;;11.20;6.50;;;;;;;5.06;44.01;101736.75;214108;1276;141436;-71
2022/03/17 18:52:12;;;;;;;12.20;6.00;;;;;;;4.98;44.04;101742.09;213963;1276;140726;-73
2022/03/17 18:57:16;;;;;;;13.60;7.10;;;;;;;4.92;43.23;101744.75;213761;1276;140676;-74
2022/03/17 19:02:22;;;;;;;13.80;7.30;;;;;;;4.85;43.52;101753.28;214023;1276;141536;-70
2022/03/17 19:07:28;;;;;;;11.10;6.70;;;;;;;4.77;43.40;101765.14;213485;1276;140703;-68
2022/03/17 19:12:36;;;;;;;9.50;6.50;;;;;;;4.71;43.05;101772.03;214565;1276;140432;-73
2022/03/17 19:17:44;;;;;;;11.70;6.60;;;;;;;4.65;42.96;101777.53;213856;1276;140952;-72
2022/03/17 19:22:50;;;;;;;10.40;5.40;;;;;;;4.60;42.93;101779.29;213387;1276;140141;-74
2022/03/17 19:27:59;;;;;;;15.60;10.90;;;;;;;4.54;42.69;101786.95;213327;1276;140218;-69
2022/03/17 19:33:05;;;;;;;11.30;6.60;;;;;;;4.47;42.69;101787.73;213198;1276;140503;-72
2022/03/17 19:38:10;;;;;;;9.60;6.50;;;;;;;4.38;42.88;101791.23;213316;1276;140668;-72
2022/03/17 19:43:15;;;;;;;16.00;7.00;;;;;;;4.29;42.71;101793.30;214585;1277;140630;-73
2022/03/17 19:48:20;;;;;;;14.10;7.00;;;;;;;4.23;42.61;101792.80;214200;1277;140355;-71
2022/03/17 19:53:28;;;;;;;11.40;7.50;;;;;;;4.18;42.62;101793.27;214083;1276;141508;-70
2022/03/17 19:58:39;;;;;;;15.20;8.10;;;;;;;4.14;42.43;101799.65;215949;1277;140269;-73
2022/03/17 20:03:45;;;;;;;20.50;7.40;;;;;;;4.11;42.30;101806.27;213746;1276;141775;-72
2022/03/17 20:08:50;;;;;;;21.40;7.80;;;;;;;4.09;42.19;101806.30;215517;1277;140137;-72
2022/03/17 20:13:57;;;;;;;11.60;5.90;;;;;;;4.04;42.38;101812.36;215732;1277;141255;-67
2022/03/17 20:19:05;;;;;;;9.90;6.10;;;;;;;3.99;42.42;101820.73;214677;1277;140500;-70
2022/03/17 20:24:11;;;;;;;15.80;7.00;;;;;;;3.93;42.10;101824.62;215625;1277;139382;-73
2022/03/17 20:29:15;;;;;;;16.20;7.80;;;;;;;3.89;42.24;101835.08;215348;1277;139041;-74
2022/03/17 20:34:36;;;;;;;8.60;6.20;;;;;;;3.85;42.15;101842.25;214156;1277;139491;-71
2022/03/17 20:39:44;;;;;;;12.00;7.00;;;;;;;3.80;42.24;101848.75;215310;1276;139508;-72
2022/03/17 20:44:48;;;;;;;11.90;7.40;;;;;;;3.72;42.45;101852.63;214672;1276;139657;-70
2022/03/17 20:49:53;;;;;;;23.60;8.00;;;;;;;3.64;42.30;101852.06;214373;1275;139837;-73
2022/03/17 20:54:58;;;;;;;12.20;6.90;;;;;;;3.58;42.48;101861.13;215021;1277;139633;-71
2022/03/17 21:00:03;;;;;;;15.00;9.10;;;;;;;3.49;42.58;101854.20;213610;1276;140060;-69
2022/03/17 21:05:09;;;;;;;13.70;8.10;;;;;;;3.41;42.65;101860.13;214483;1276;141592;-72
2022/03/17 21:10:12;;;;;;;14.70;7.20;;;;;;;3.34;42.65;101861.48;214051;1277;140321;-71
2022/03/17 21:15:17;;;;;;;10.60;6.90;;;;;;;3.29;42.85;101866.89;213061;1276;142347;-68
2022/03/17 21:20:20;;;;;;;16.50;8.50;;;;;;;3.23;42.75;101872.88;213341;1276;141610;-76
2022/03/17 21:25:24;;;;;;;14.40;7.50;;;;;;;3.15;42.90;101867.75;213678;1276;140580;-73
2022/03/17 21:30:31;;;;;;;14.30;7.30;;;;;;;3.08;43.19;101873.61;214134;1277;141282;-70
2022/03/17 21:35:35;;;;;;;9.70;4.60;;;;;;;3.03;43.29;101876.66;213870;1274;140444;-77
2022/03/17 21:40:39;;;;;;;15.90;9.90;;;;;;;2.99;42.99;101879.48;214247;1272;139752;-74
2022/03/17 21:45:43;;;;;;;10.30;6.30;;;;;;;2.95;43.34;101881.45;214719;1274;139693;-74
2022/03/17 21:50:49;;;;;;;26.30;12.60;;;;;;;2.89;43.59;101876.84;214272;1274;139389;-70
2022/03/17 21:55:57;;;;;;;16.90;8.20;;;;;;;2.83;43.22;101880.70;214440;1273;526845;-70
2022/03/17 22:01:02;;;;;;;14.10;8.80;;;;;;;2.79;43.47;101884.73;215298;1273;141610;-76
2022/03/17 22:06:07;;;;;;;14.30;6.70;;;;;;;2.74;43.57;101891.70;213284;1274;140400;-72
2022/03/17 22:11:16;;;;;;;18.20;8.60;;;;;;;2.67;43.78;101893.48;214546;1274;141450;-77
2022/03/17 22:16:20;;;;;;;15.50;8.00;;;;;;;2.62;43.59;101901.14;214457;1274;143162;-75
2022/03/17 22:21:24;;;;;;;26.70;13.10;;;;;;;2.59;43.95;101901.79;216146;1274;140228;-72
2022/03/17 22:26:29;;;;;;;24.90;11.30;;;;;;;2.55;43.69;101905.23;215941;1274;140464;-75
2022/03/17 22:31:35;;;;;;;15.20;7.80;;;;;;;2.53;43.81;101911.41;215122;1274;140793;-70
2022/03/17 22:36:39;;;;;;;18.10;9.20;;;;;;;2.51;43.68;101919.30;215719;1272;140471;-70
2022/03/17 22:41:43;;;;;;;14.80;8.90;;;;;;;2.49;43.86;101924.67;214282;1274;140381;-74
2022/03/17 22:46:49;;;;;;;21.90;10.40;;;;;;;2.47;43.85;101925.40;216251;1274;139335;-72
2022/03/17 22:51:53;;;;;;;12.40;5.90;;;;;;;2.44;43.78;101931.63;215313;1275;139910;-71
2022/03/17 22:56:58;;;;;;;16.10;8.70;;;;;;;2.43;43.80;101940.00;214576;1274;141727;-71
2022/03/17 23:02:02;;;;;;;18.80;10.00;;;;;;;2.41;43.91;101947.02;214056;1272;141238;-66
2022/03/17 23:07:08;;;;;;;21.00;9.90;;;;;;;2.36;43.97;101946.53;214631;1274;140676;-73
2022/03/17 23:12:13;;;;;;;18.90;10.80;;;;;;;2.30;43.83;101956.10;214285;1272;140171;-70
2022/03/17 23:17:18;;;;;;;15.30;8.60;;;;;;;2.23;43.90;101953.38;214551;1274;139909;-68
2022/03/17 23:22:22;;;;;;;11.60;8.00;;;;;;;2.17;44.39;101953.52;214954;1274;143332;-73
2022/03/17 23:27:26;;;;;;;13.70;8.10;;;;;;;2.09;44.46;101956.63;213726;1274;140629;-68
2022/03/17 23:32:30;;;;;;;17.90;8.70;;;;;;;2.00;44.72;101959.67;214426;1274;140308;-69
2022/03/17 23:37:34;;;;;;;17.10;8.00;;;;;;;1.93;44.90;101967.81;213190;1274;140511;-67